sensor_id;sensor_type;location;lat;lon;timestamp;temperature;humidity
18163;DHT22;9206;50.994;4.538;2024-01-30T00:02:03;7.50;99.90
18163;DHT22;9206;50.994;4.538;2024-01-30T00:04:53;7.60;99.90
18163;DHT22;9206;50.994;4.538;2024-01-30T00:07:45;7.60;99.90
18163;DHT22;9206;50.994;4.538;2024-01-30T00:10:35;7.50;99.90
18163;DHT22;9206;50.994;4.538;2024-01-30T00:13:24;7.50;99.90
18163;DHT22;9206;50.994;4.538;2024-01-30T00:16:20;7.60;99.90
18163;DHT22;9206;50.994;4.538;2024-01-30T00:19:13;7.70;99.90
18163;DHT22;9206;50.994;4.538;2024-01-30T00:22:04;7.90;99.90
18163;DHT22;9206;50.994;4.538;2024-01-30T00:24:54;7.90;99.90
18163;DHT22;9206;50.994;4.538;2024-01-30T00:27:44;8.00;99.90
18163;DHT22;9206;50.994;4.538;2024-01-30T00:30:33;8.10;99.90
18163;DHT22;9206;50.994;4.538;2024-01-30T00:33:22;8.30;99.90
18163;DHT22;9206;50.994;4.538;2024-01-30T00:36:14;8.50;99.90
18163;DHT22;9206;50.994;4.538;2024-01-30T00:39:02;8.70;99.90
18163;DHT22;9206;50.994;4.538;2024-01-30T00:41:51;8.90;99.90
18163;DHT22;9206;50.994;4.538;2024-01-30T00:44:42;8.90;99.90
18163;DHT22;9206;50.994;4.538;2024-01-30T00:47:29;9.00;99.90
18163;DHT22;9206;50.994;4.538;2024-01-30T00:50:19;9.00;99.90
18163;DHT22;9206;50.994;4.538;2024-01-30T00:53:11;9.00;99.90
18163;DHT22;9206;50.994;4.538;2024-01-30T00:56:01;9.00;99.90
18163;DHT22;9206;50.994;4.538;2024-01-30T00:58:52;9.10;99.90
18163;DHT22;9206;50.994;4.538;2024-01-30T01:01:45;9.10;99.90
18163;DHT22;9206;50.994;4.538;2024-01-30T01:04:35;9.20;99.90
18163;DHT22;9206;50.994;4.538;2024-01-30T01:07:25;9.30;99.90
18163;DHT22;9206;50.994;4.538;2024-01-30T01:10:20;9.30;99.90
18163;DHT22;9206;50.994;4.538;2024-01-30T01:13:13;9.30;99.90
18163;DHT22;9206;50.994;4.538;2024-01-30T01:16:00;9.50;99.90
18163;DHT22;9206;50.994;4.538;2024-01-30T01:18:50;9.50;99.90
18163;DHT22;9206;50.994;4.538;2024-01-30T01:21:40;9.60;99.90
18163;DHT22;9206;50.994;4.538;2024-01-30T01:24:32;9.60;99.90
18163;DHT22;9206;50.994;4.538;2024-01-30T01:27:37;9.50;99.90
18163;DHT22;9206;50.994;4.538;2024-01-30T01:30:39;9.40;99.90
18163;DHT22;9206;50.994;4.538;2024-01-30T01:33:33;9.30;99.90
18163;DHT22;9206;50.994;4.538;2024-01-30T01:36:22;9.30;99.90
18163;DHT22;9206;50.994;4.538;2024-01-30T01:39:15;9.30;99.90
18163;DHT22;9206;50.994;4.538;2024-01-30T01:42:05;9.10;99.90
18163;DHT22;9206;50.994;4.538;2024-01-30T01:45:12;9.00;99.90
18163;DHT22;9206;50.994;4.538;2024-01-30T01:48:26;8.90;99.90
18163;DHT22;9206;50.994;4.538;2024-01-30T01:51:16;8.80;99.90
18163;DHT22;9206;50.994;4.538;2024-01-30T01:54:08;8.70;99.90
18163;DHT22;9206;50.994;4.538;2024-01-30T01:56:56;8.60;99.90
18163;DHT22;9206;50.994;4.538;2024-01-30T01:59:44;8.50;99.90
18163;DHT22;9206;50.994;4.538;2024-01-30T02:02:34;8.50;99.90
18163;DHT22;9206;50.994;4.538;2024-01-30T02:05:26;8.40;99.90
18163;DHT22;9206;50.994;4.538;2024-01-30T02:08:17;8.40;99.90
18163;DHT22;9206;50.994;4.538;2024-01-30T02:11:04;8.30;99.90
18163;DHT22;9206;50.994;4.538;2024-01-30T02:13:52;8.40;99.90
18163;DHT22;9206;50.994;4.538;2024-01-30T02:16:39;8.50;99.90
18163;DHT22;9206;50.994;4.538;2024-01-30T02:19:26;8.50;99.90
18163;DHT22;9206;50.994;4.538;2024-01-30T02:22:18;8.40;99.90
18163;DHT22;9206;50.994;4.538;2024-01-30T02:25:06;8.20;99.90
18163;DHT22;9206;50.994;4.538;2024-01-30T02:27:58;8.20;99.90
18163;DHT22;9206;50.994;4.538;2024-01-30T02:30:45;8.30;99.90
18163;DHT22;9206;50.994;4.538;2024-01-30T02:33:32;8.20;99.90
18163;DHT22;9206;50.994;4.538;2024-01-30T02:36:20;8.10;99.90
18163;DHT22;9206;50.994;4.538;2024-01-30T02:39:12;8.00;99.90
18163;DHT22;9206;50.994;4.538;2024-01-30T02:42:03;7.90;99.90
18163;DHT22;9206;50.994;4.538;2024-01-30T02:44:54;7.80;99.90
18163;DHT22;9206;50.994;4.538;2024-01-30T02:47:45;7.70;99.90
18163;DHT22;9206;50.994;4.538;2024-01-30T02:50:33;7.60;99.90
18163;DHT22;9206;50.994;4.538;2024-01-30T02:53:22;7.60;99.90
18163;DHT22;9206;50.994;4.538;2024-01-30T02:56:15;7.50;99.90
18163;DHT22;9206;50.994;4.538;2024-01-30T02:59:05;7.50;99.90
18163;DHT22;9206;50.994;4.538;2024-01-30T03:01:56;7.50;99.90
18163;DHT22;9206;50.994;4.538;2024-01-30T03:04:46;7.50;99.90
18163;DHT22;9206;50.994;4.538;2024-01-30T03:07:35;7.60;99.90
18163;DHT22;9206;50.994;4.538;2024-01-30T03:10:28;7.80;99.90
18163;DHT22;9206;50.994;4.538;2024-01-30T03:13:21;7.80;99.90
18163;DHT22;9206;50.994;4.538;2024-01-30T03:16:12;8.00;99.90
18163;DHT22;9206;50.994;4.538;2024-01-30T03:19:01;8.10;99.90
18163;DHT22;9206;50.994;4.538;2024-01-30T03:21:50;8.30;99.90
18163;DHT22;9206;50.994;4.538;2024-01-30T03:24:40;8.40;99.90
18163;DHT22;9206;50.994;4.538;2024-01-30T03:27:29;8.70;99.90
18163;DHT22;9206;50.994;4.538;2024-01-30T03:30:20;8.90;99.90
18163;DHT22;9206;50.994;4.538;2024-01-30T03:33:07;9.00;99.90
18163;DHT22;9206;50.994;4.538;2024-01-30T03:35:55;9.10;99.90
18163;DHT22;9206;50.994;4.538;2024-01-30T03:38:44;9.30;99.90
18163;DHT22;9206;50.994;4.538;2024-01-30T03:41:34;9.40;99.90
18163;DHT22;9206;50.994;4.538;2024-01-30T03:44:23;9.40;99.90
18163;DHT22;9206;50.994;4.538;2024-01-30T03:47:12;9.60;99.90
18163;DHT22;9206;50.994;4.538;2024-01-30T03:50:00;9.70;99.90
18163;DHT22;9206;50.994;4.538;2024-01-30T03:52:49;9.80;99.90
18163;DHT22;9206;50.994;4.538;2024-01-30T03:55:39;9.90;99.90
18163;DHT22;9206;50.994;4.538;2024-01-30T03:58:32;10.00;99.90
18163;DHT22;9206;50.994;4.538;2024-01-30T04:01:19;10.10;99.90
18163;DHT22;9206;50.994;4.538;2024-01-30T04:04:12;10.30;99.90
18163;DHT22;9206;50.994;4.538;2024-01-30T04:07:00;10.30;99.90
18163;DHT22;9206;50.994;4.538;2024-01-30T04:09:48;10.30;99.90
18163;DHT22;9206;50.994;4.538;2024-01-30T04:12:36;10.40;99.90
18163;DHT22;9206;50.994;4.538;2024-01-30T04:15:26;10.40;99.90
18163;DHT22;9206;50.994;4.538;2024-01-30T04:18:15;10.50;99.90
18163;DHT22;9206;50.994;4.538;2024-01-30T04:21:10;10.50;99.90
18163;DHT22;9206;50.994;4.538;2024-01-30T04:24:01;10.40;99.90
18163;DHT22;9206;50.994;4.538;2024-01-30T04:26:48;10.20;99.90
18163;DHT22;9206;50.994;4.538;2024-01-30T04:29:35;10.20;99.90
18163;DHT22;9206;50.994;4.538;2024-01-30T04:32:25;10.10;99.90
18163;DHT22;9206;50.994;4.538;2024-01-30T04:35:12;10.00;99.90
18163;DHT22;9206;50.994;4.538;2024-01-30T04:38:01;10.00;99.90
18163;DHT22;9206;50.994;4.538;2024-01-30T04:40:49;9.90;99.90
18163;DHT22;9206;50.994;4.538;2024-01-30T04:43:36;9.90;99.90
18163;DHT22;9206;50.994;4.538;2024-01-30T04:46:24;9.80;99.90
18163;DHT22;9206;50.994;4.538;2024-01-30T04:49:11;9.80;99.90
18163;DHT22;9206;50.994;4.538;2024-01-30T04:52:04;9.80;99.90
18163;DHT22;9206;50.994;4.538;2024-01-30T04:54:59;9.80;99.90
18163;DHT22;9206;50.994;4.538;2024-01-30T04:57:50;9.80;99.90
18163;DHT22;9206;50.994;4.538;2024-01-30T05:00:40;9.80;99.90
18163;DHT22;9206;50.994;4.538;2024-01-30T05:03:27;9.80;99.90
18163;DHT22;9206;50.994;4.538;2024-01-30T05:06:26;9.70;99.90
18163;DHT22;9206;50.994;4.538;2024-01-30T05:09:13;9.60;99.90
18163;DHT22;9206;50.994;4.538;2024-01-30T05:12:03;9.60;99.90
18163;DHT22;9206;50.994;4.538;2024-01-30T05:14:52;9.70;99.90
18163;DHT22;9206;50.994;4.538;2024-01-30T05:17:42;9.70;99.90
18163;DHT22;9206;50.994;4.538;2024-01-30T05:20:31;9.80;99.90
18163;DHT22;9206;50.994;4.538;2024-01-30T05:23:19;9.90;99.90
18163;DHT22;9206;50.994;4.538;2024-01-30T05:26:10;9.80;99.90
18163;DHT22;9206;50.994;4.538;2024-01-30T05:29:00;9.80;99.90
18163;DHT22;9206;50.994;4.538;2024-01-30T05:31:49;9.70;99.90
18163;DHT22;9206;50.994;4.538;2024-01-30T05:34:40;9.70;99.90
18163;DHT22;9206;50.994;4.538;2024-01-30T05:37:28;9.60;99.90
18163;DHT22;9206;50.994;4.538;2024-01-30T05:40:18;9.70;99.90
18163;DHT22;9206;50.994;4.538;2024-01-30T05:43:06;9.70;99.90
18163;DHT22;9206;50.994;4.538;2024-01-30T05:46:00;9.70;99.90
18163;DHT22;9206;50.994;4.538;2024-01-30T05:48:49;9.70;99.90
18163;DHT22;9206;50.994;4.538;2024-01-30T05:51:39;9.80;99.90
18163;DHT22;9206;50.994;4.538;2024-01-30T05:54:28;9.80;99.90
18163;DHT22;9206;50.994;4.538;2024-01-30T05:57:17;9.80;99.90
18163;DHT22;9206;50.994;4.538;2024-01-30T06:00:11;9.80;99.90
18163;DHT22;9206;50.994;4.538;2024-01-30T06:03:03;9.70;99.90
18163;DHT22;9206;50.994;4.538;2024-01-30T06:05:53;9.70;99.90
18163;DHT22;9206;50.994;4.538;2024-01-30T06:08:40;9.70;99.90
18163;DHT22;9206;50.994;4.538;2024-01-30T06:11:29;9.80;99.90
18163;DHT22;9206;50.994;4.538;2024-01-30T06:14:19;9.90;99.90
18163;DHT22;9206;50.994;4.538;2024-01-30T06:17:06;9.90;99.90
18163;DHT22;9206;50.994;4.538;2024-01-30T06:19:56;10.00;99.90
18163;DHT22;9206;50.994;4.538;2024-01-30T06:22:46;9.90;99.90
18163;DHT22;9206;50.994;4.538;2024-01-30T06:25:36;9.90;99.90
18163;DHT22;9206;50.994;4.538;2024-01-30T06:28:26;9.90;99.90
18163;DHT22;9206;50.994;4.538;2024-01-30T06:31:13;9.80;99.90
18163;DHT22;9206;50.994;4.538;2024-01-30T06:34:03;9.90;99.90
18163;DHT22;9206;50.994;4.538;2024-01-30T06:36:55;9.80;99.90
18163;DHT22;9206;50.994;4.538;2024-01-30T06:39:48;9.80;99.90
18163;DHT22;9206;50.994;4.538;2024-01-30T06:42:37;9.80;99.90
18163;DHT22;9206;50.994;4.538;2024-01-30T06:45:27;9.70;99.90
18163;DHT22;9206;50.994;4.538;2024-01-30T06:48:14;9.70;99.90
18163;DHT22;9206;50.994;4.538;2024-01-30T06:51:07;9.80;99.90
18163;DHT22;9206;50.994;4.538;2024-01-30T06:54:14;9.80;99.90
18163;DHT22;9206;50.994;4.538;2024-01-30T06:57:04;9.90;99.90
18163;DHT22;9206;50.994;4.538;2024-01-30T06:59:55;9.90;99.90
18163;DHT22;9206;50.994;4.538;2024-01-30T07:02:43;9.90;99.90
18163;DHT22;9206;50.994;4.538;2024-01-30T07:05:30;9.90;99.90
18163;DHT22;9206;50.994;4.538;2024-01-30T07:08:17;9.90;99.90
18163;DHT22;9206;50.994;4.538;2024-01-30T07:11:06;9.90;99.90
18163;DHT22;9206;50.994;4.538;2024-01-30T07:13:55;10.00;99.90
18163;DHT22;9206;50.994;4.538;2024-01-30T07:16:44;10.00;99.90
18163;DHT22;9206;50.994;4.538;2024-01-30T07:19:34;10.00;99.90
18163;DHT22;9206;50.994;4.538;2024-01-30T07:22:23;10.00;99.90
18163;DHT22;9206;50.994;4.538;2024-01-30T07:25:13;10.00;99.90
18163;DHT22;9206;50.994;4.538;2024-01-30T07:28:05;10.00;99.90
18163;DHT22;9206;50.994;4.538;2024-01-30T07:30:55;10.10;99.90
18163;DHT22;9206;50.994;4.538;2024-01-30T07:33:42;10.10;99.90
18163;DHT22;9206;50.994;4.538;2024-01-30T07:36:29;10.20;99.90
18163;DHT22;9206;50.994;4.538;2024-01-30T07:39:19;10.30;99.90
18163;DHT22;9206;50.994;4.538;2024-01-30T07:42:12;10.50;99.90
18163;DHT22;9206;50.994;4.538;2024-01-30T07:45:04;10.60;99.90
18163;DHT22;9206;50.994;4.538;2024-01-30T07:47:52;10.70;99.90
18163;DHT22;9206;50.994;4.538;2024-01-30T07:50:40;10.80;99.90
18163;DHT22;9206;50.994;4.538;2024-01-30T07:53:30;10.90;99.90
18163;DHT22;9206;50.994;4.538;2024-01-30T07:56:18;11.10;99.90
18163;DHT22;9206;50.994;4.538;2024-01-30T07:59:09;11.20;99.90
18163;DHT22;9206;50.994;4.538;2024-01-30T08:02:00;11.20;99.90
18163;DHT22;9206;50.994;4.538;2024-01-30T08:04:48;11.30;99.90
18163;DHT22;9206;50.994;4.538;2024-01-30T08:07:38;11.40;99.90
18163;DHT22;9206;50.994;4.538;2024-01-30T08:10:27;11.50;99.90
18163;DHT22;9206;50.994;4.538;2024-01-30T08:13:15;11.40;99.90
18163;DHT22;9206;50.994;4.538;2024-01-30T08:16:04;11.40;99.90
18163;DHT22;9206;50.994;4.538;2024-01-30T08:18:55;11.40;99.90
18163;DHT22;9206;50.994;4.538;2024-01-30T08:21:43;11.40;99.90
18163;DHT22;9206;50.994;4.538;2024-01-30T08:24:32;11.50;99.90
18163;DHT22;9206;50.994;4.538;2024-01-30T08:27:19;11.50;99.90
18163;DHT22;9206;50.994;4.538;2024-01-30T08:30:08;11.40;99.90
18163;DHT22;9206;50.994;4.538;2024-01-30T08:33:01;11.50;99.90
18163;DHT22;9206;50.994;4.538;2024-01-30T08:35:52;11.50;99.90
18163;DHT22;9206;50.994;4.538;2024-01-30T08:38:42;11.50;99.90
18163;DHT22;9206;50.994;4.538;2024-01-30T08:41:29;11.50;99.90
18163;DHT22;9206;50.994;4.538;2024-01-30T08:44:17;11.60;99.90
18163;DHT22;9206;50.994;4.538;2024-01-30T08:47:04;11.60;99.90
18163;DHT22;9206;50.994;4.538;2024-01-30T08:49:53;11.60;99.90
18163;DHT22;9206;50.994;4.538;2024-01-30T08:52:47;11.70;99.90
18163;DHT22;9206;50.994;4.538;2024-01-30T08:55:34;11.70;99.90
18163;DHT22;9206;50.994;4.538;2024-01-30T08:58:21;11.80;99.90
18163;DHT22;9206;50.994;4.538;2024-01-30T09:01:09;11.80;99.90
18163;DHT22;9206;50.994;4.538;2024-01-30T09:03:59;11.80;99.90
18163;DHT22;9206;50.994;4.538;2024-01-30T09:06:48;11.90;99.90
18163;DHT22;9206;50.994;4.538;2024-01-30T09:09:37;11.90;99.90
18163;DHT22;9206;50.994;4.538;2024-01-30T09:12:28;11.90;99.90
18163;DHT22;9206;50.994;4.538;2024-01-30T09:15:15;11.90;99.90
18163;DHT22;9206;50.994;4.538;2024-01-30T09:18:06;11.80;99.90
18163;DHT22;9206;50.994;4.538;2024-01-30T09:20:55;11.80;99.90
18163;DHT22;9206;50.994;4.538;2024-01-30T09:23:43;11.80;99.90
18163;DHT22;9206;50.994;4.538;2024-01-30T09:26:52;11.80;99.90
18163;DHT22;9206;50.994;4.538;2024-01-30T09:29:40;11.80;99.90
18163;DHT22;9206;50.994;4.538;2024-01-30T09:32:30;11.80;99.90
18163;DHT22;9206;50.994;4.538;2024-01-30T09:35:20;11.80;99.90
18163;DHT22;9206;50.994;4.538;2024-01-30T09:38:07;11.90;99.90
18163;DHT22;9206;50.994;4.538;2024-01-30T09:40:57;11.80;99.90
18163;DHT22;9206;50.994;4.538;2024-01-30T09:43:51;11.90;99.90
18163;DHT22;9206;50.994;4.538;2024-01-30T09:46:38;11.90;99.90
18163;DHT22;9206;50.994;4.538;2024-01-30T09:49:32;11.90;99.90
18163;DHT22;9206;50.994;4.538;2024-01-30T09:52:20;11.90;99.90
18163;DHT22;9206;50.994;4.538;2024-01-30T09:55:13;12.00;99.90
18163;DHT22;9206;50.994;4.538;2024-01-30T09:58:01;12.00;99.90
18163;DHT22;9206;50.994;4.538;2024-01-30T10:00:51;12.00;99.90
18163;DHT22;9206;50.994;4.538;2024-01-30T10:03:41;11.90;99.90
18163;DHT22;9206;50.994;4.538;2024-01-30T10:06:31;11.80;99.90
18163;DHT22;9206;50.994;4.538;2024-01-30T10:09:27;11.80;99.90
18163;DHT22;9206;50.994;4.538;2024-01-30T10:12:15;11.80;99.90
18163;DHT22;9206;50.994;4.538;2024-01-30T10:15:03;11.70;99.90
18163;DHT22;9206;50.994;4.538;2024-01-30T10:17:57;11.70;99.90
18163;DHT22;9206;50.994;4.538;2024-01-30T10:20:51;11.70;99.90
18163;DHT22;9206;50.994;4.538;2024-01-30T10:23:39;11.70;99.90
18163;DHT22;9206;50.994;4.538;2024-01-30T10:26:29;11.80;99.90
18163;DHT22;9206;50.994;4.538;2024-01-30T10:29:26;11.70;99.90
18163;DHT22;9206;50.994;4.538;2024-01-30T10:32:15;11.80;99.90
18163;DHT22;9206;50.994;4.538;2024-01-30T10:35:06;11.70;99.90
18163;DHT22;9206;50.994;4.538;2024-01-30T10:37:57;11.70;99.90
18163;DHT22;9206;50.994;4.538;2024-01-30T10:40:47;11.60;99.90
18163;DHT22;9206;50.994;4.538;2024-01-30T10:43:41;11.70;99.90
18163;DHT22;9206;50.994;4.538;2024-01-30T10:46:31;11.60;99.90
18163;DHT22;9206;50.994;4.538;2024-01-30T10:49:20;11.50;99.90
18163;DHT22;9206;50.994;4.538;2024-01-30T10:52:13;11.50;99.90
18163;DHT22;9206;50.994;4.538;2024-01-30T10:55:06;11.50;99.90
18163;DHT22;9206;50.994;4.538;2024-01-30T10:57:56;11.40;99.90
18163;DHT22;9206;50.994;4.538;2024-01-30T11:00:44;11.30;99.90
18163;DHT22;9206;50.994;4.538;2024-01-30T11:03:35;11.30;99.90
18163;DHT22;9206;50.994;4.538;2024-01-30T11:06:32;11.40;99.90
18163;DHT22;9206;50.994;4.538;2024-01-30T11:09:24;11.30;99.90
18163;DHT22;9206;50.994;4.538;2024-01-30T11:12:12;11.30;99.90
18163;DHT22;9206;50.994;4.538;2024-01-30T11:15:06;11.30;99.90
18163;DHT22;9206;50.994;4.538;2024-01-30T11:17:56;11.20;99.90
18163;DHT22;9206;50.994;4.538;2024-01-30T11:20:47;11.20;99.90
18163;DHT22;9206;50.994;4.538;2024-01-30T11:23:34;11.20;99.90
18163;DHT22;9206;50.994;4.538;2024-01-30T11:26:28;11.20;99.90
18163;DHT22;9206;50.994;4.538;2024-01-30T11:29:24;11.10;99.90
18163;DHT22;9206;50.994;4.538;2024-01-30T11:32:21;11.10;99.90
18163;DHT22;9206;50.994;4.538;2024-01-30T11:35:12;11.10;99.90
18163;DHT22;9206;50.994;4.538;2024-01-30T11:38:00;11.20;99.90
18163;DHT22;9206;50.994;4.538;2024-01-30T11:40:51;11.30;99.90
18163;DHT22;9206;50.994;4.538;2024-01-30T11:43:41;11.40;99.90
18163;DHT22;9206;50.994;4.538;2024-01-30T11:46:29;11.70;99.90
18163;DHT22;9206;50.994;4.538;2024-01-30T11:49:20;12.60;99.90
18163;DHT22;9206;50.994;4.538;2024-01-30T11:52:16;12.40;99.90
18163;DHT22;9206;50.994;4.538;2024-01-30T11:55:06;12.80;99.90
18163;DHT22;9206;50.994;4.538;2024-01-30T11:57:55;13.70;99.90
18163;DHT22;9206;50.994;4.538;2024-01-30T12:00:53;15.20;99.90
18163;DHT22;9206;50.994;4.538;2024-01-30T12:03:49;15.50;99.90
18163;DHT22;9206;50.994;4.538;2024-01-30T12:06:42;15.10;99.90
18163;DHT22;9206;50.994;4.538;2024-01-30T12:09:31;14.40;99.90
18163;DHT22;9206;50.994;4.538;2024-01-30T12:12:41;13.90;99.90
18163;DHT22;9206;50.994;4.538;2024-01-30T12:15:35;13.60;99.90
18163;DHT22;9206;50.994;4.538;2024-01-30T12:18:40;14.60;99.90
18163;DHT22;9206;50.994;4.538;2024-01-30T12:21:29;16.20;99.90
18163;DHT22;9206;50.994;4.538;2024-01-30T12:24:18;17.10;99.90
18163;DHT22;9206;50.994;4.538;2024-01-30T12:27:10;18.40;99.90
18163;DHT22;9206;50.994;4.538;2024-01-30T12:30:05;18.50;99.90
18163;DHT22;9206;50.994;4.538;2024-01-30T12:32:59;18.50;99.90
18163;DHT22;9206;50.994;4.538;2024-01-30T12:36:04;17.70;99.90
18163;DHT22;9206;50.994;4.538;2024-01-30T12:38:57;18.00;99.90
18163;DHT22;9206;50.994;4.538;2024-01-30T12:41:52;18.20;99.90
18163;DHT22;9206;50.994;4.538;2024-01-30T12:44:52;18.90;99.90
18163;DHT22;9206;50.994;4.538;2024-01-30T12:47:57;19.10;99.90
18163;DHT22;9206;50.994;4.538;2024-01-30T12:50:46;19.50;99.90
18163;DHT22;9206;50.994;4.538;2024-01-30T12:53:47;18.60;99.90
18163;DHT22;9206;50.994;4.538;2024-01-30T12:56:36;18.90;99.90
18163;DHT22;9206;50.994;4.538;2024-01-30T12:59:27;18.50;99.90
18163;DHT22;9206;50.994;4.538;2024-01-30T13:02:35;18.30;99.90
18163;DHT22;9206;50.994;4.538;2024-01-30T13:05:26;18.60;99.90
18163;DHT22;9206;50.994;4.538;2024-01-30T13:08:19;18.40;99.90
18163;DHT22;9206;50.994;4.538;2024-01-30T13:11:12;17.60;99.90
18163;DHT22;9206;50.994;4.538;2024-01-30T13:14:07;16.80;99.90
18163;DHT22;9206;50.994;4.538;2024-01-30T13:17:00;16.00;99.90
18163;DHT22;9206;50.994;4.538;2024-01-30T13:19:52;14.90;99.90
18163;DHT22;9206;50.994;4.538;2024-01-30T13:22:47;14.10;99.90
18163;DHT22;9206;50.994;4.538;2024-01-30T13:25:37;13.70;99.90
18163;DHT22;9206;50.994;4.538;2024-01-30T13:28:29;13.20;99.90
18163;DHT22;9206;50.994;4.538;2024-01-30T13:31:17;12.90;99.90
18163;DHT22;9206;50.994;4.538;2024-01-30T13:34:08;12.60;99.90
18163;DHT22;9206;50.994;4.538;2024-01-30T13:36:55;12.20;99.90
18163;DHT22;9206;50.994;4.538;2024-01-30T13:39:42;12.20;99.90
18163;DHT22;9206;50.994;4.538;2024-01-30T13:42:30;12.20;99.90
18163;DHT22;9206;50.994;4.538;2024-01-30T13:45:23;12.00;99.90
18163;DHT22;9206;50.994;4.538;2024-01-30T13:48:13;11.90;99.90
18163;DHT22;9206;50.994;4.538;2024-01-30T13:51:04;11.80;99.90
18163;DHT22;9206;50.994;4.538;2024-01-30T13:53:51;11.80;99.90
18163;DHT22;9206;50.994;4.538;2024-01-30T13:56:41;11.60;99.90
18163;DHT22;9206;50.994;4.538;2024-01-30T13:59:28;11.60;99.90
18163;DHT22;9206;50.994;4.538;2024-01-30T14:02:20;11.60;99.90
18163;DHT22;9206;50.994;4.538;2024-01-30T14:05:10;11.50;99.90
18163;DHT22;9206;50.994;4.538;2024-01-30T14:08:05;11.50;99.90
18163;DHT22;9206;50.994;4.538;2024-01-30T14:10:53;11.50;99.90
18163;DHT22;9206;50.994;4.538;2024-01-30T14:13:44;11.30;99.90
18163;DHT22;9206;50.994;4.538;2024-01-30T14:16:36;11.20;99.90
18163;DHT22;9206;50.994;4.538;2024-01-30T14:19:32;11.20;99.90
18163;DHT22;9206;50.994;4.538;2024-01-30T14:22:24;11.10;99.90
18163;DHT22;9206;50.994;4.538;2024-01-30T14:25:12;11.10;99.90
18163;DHT22;9206;50.994;4.538;2024-01-30T14:28:02;11.00;99.90
18163;DHT22;9206;50.994;4.538;2024-01-30T14:30:53;10.90;99.90
18163;DHT22;9206;50.994;4.538;2024-01-30T14:33:43;10.90;99.90
18163;DHT22;9206;50.994;4.538;2024-01-30T14:36:35;10.90;99.90
18163;DHT22;9206;50.994;4.538;2024-01-30T14:39:24;10.70;99.90
18163;DHT22;9206;50.994;4.538;2024-01-30T14:42:12;10.80;99.90
18163;DHT22;9206;50.994;4.538;2024-01-30T14:45:02;10.80;99.90
18163;DHT22;9206;50.994;4.538;2024-01-30T14:47:51;10.60;99.90
18163;DHT22;9206;50.994;4.538;2024-01-30T14:50:38;10.60;99.90
18163;DHT22;9206;50.994;4.538;2024-01-30T14:53:29;10.50;99.90
18163;DHT22;9206;50.994;4.538;2024-01-30T14:56:19;10.40;99.90
18163;DHT22;9206;50.994;4.538;2024-01-30T14:59:13;10.40;99.90
18163;DHT22;9206;50.994;4.538;2024-01-30T15:02:00;10.40;99.90
18163;DHT22;9206;50.994;4.538;2024-01-30T15:04:49;10.40;99.90
18163;DHT22;9206;50.994;4.538;2024-01-30T15:07:38;10.40;99.90
18163;DHT22;9206;50.994;4.538;2024-01-30T15:10:29;10.40;99.90
18163;DHT22;9206;50.994;4.538;2024-01-30T15:13:19;10.40;99.90
18163;DHT22;9206;50.994;4.538;2024-01-30T15:16:06;10.40;99.90
18163;DHT22;9206;50.994;4.538;2024-01-30T15:18:54;10.40;99.90
18163;DHT22;9206;50.994;4.538;2024-01-30T15:21:43;10.40;99.90
18163;DHT22;9206;50.994;4.538;2024-01-30T15:24:33;10.30;99.90
18163;DHT22;9206;50.994;4.538;2024-01-30T15:27:24;10.40;99.90
18163;DHT22;9206;50.994;4.538;2024-01-30T15:30:12;10.30;99.90
18163;DHT22;9206;50.994;4.538;2024-01-30T15:32:59;10.20;99.90
18163;DHT22;9206;50.994;4.538;2024-01-30T15:35:50;10.20;99.90
18163;DHT22;9206;50.994;4.538;2024-01-30T15:38:37;10.10;99.90
18163;DHT22;9206;50.994;4.538;2024-01-30T15:41:26;10.10;99.90
18163;DHT22;9206;50.994;4.538;2024-01-30T15:44:18;10.00;99.90
18163;DHT22;9206;50.994;4.538;2024-01-30T15:47:08;10.00;99.90
18163;DHT22;9206;50.994;4.538;2024-01-30T15:49:56;10.00;99.90
18163;DHT22;9206;50.994;4.538;2024-01-30T15:52:44;10.00;99.90
18163;DHT22;9206;50.994;4.538;2024-01-30T15:55:33;9.90;99.90
18163;DHT22;9206;50.994;4.538;2024-01-30T15:58:21;9.90;99.90
18163;DHT22;9206;50.994;4.538;2024-01-30T16:01:10;9.90;99.90
18163;DHT22;9206;50.994;4.538;2024-01-30T16:03:57;9.90;99.90
18163;DHT22;9206;50.994;4.538;2024-01-30T16:06:48;9.90;99.90
18163;DHT22;9206;50.994;4.538;2024-01-30T16:09:38;9.90;99.90
18163;DHT22;9206;50.994;4.538;2024-01-30T16:12:39;9.90;99.90
18163;DHT22;9206;50.994;4.538;2024-01-30T16:15:33;9.80;99.90
18163;DHT22;9206;50.994;4.538;2024-01-30T16:18:23;9.80;99.90
18163;DHT22;9206;50.994;4.538;2024-01-30T16:21:13;9.70;99.90
18163;DHT22;9206;50.994;4.538;2024-01-30T16:24:03;9.60;99.90
18163;DHT22;9206;50.994;4.538;2024-01-30T16:26:53;9.60;99.90
18163;DHT22;9206;50.994;4.538;2024-01-30T16:29:44;9.60;99.90
18163;DHT22;9206;50.994;4.538;2024-01-30T16:32:31;9.30;99.90
18163;DHT22;9206;50.994;4.538;2024-01-30T16:35:20;9.20;99.90
18163;DHT22;9206;50.994;4.538;2024-01-30T16:38:08;9.10;99.90
18163;DHT22;9206;50.994;4.538;2024-01-30T16:41:02;9.00;99.90
18163;DHT22;9206;50.994;4.538;2024-01-30T16:43:50;9.00;99.90
18163;DHT22;9206;50.994;4.538;2024-01-30T16:46:38;8.90;99.90
18163;DHT22;9206;50.994;4.538;2024-01-30T16:49:25;8.90;99.90
18163;DHT22;9206;50.994;4.538;2024-01-30T16:52:14;8.90;99.90
18163;DHT22;9206;50.994;4.538;2024-01-30T16:55:05;8.90;99.90
18163;DHT22;9206;50.994;4.538;2024-01-30T16:57:52;8.90;99.90
18163;DHT22;9206;50.994;4.538;2024-01-30T17:00:42;8.80;99.90
18163;DHT22;9206;50.994;4.538;2024-01-30T17:03:33;8.80;99.90
18163;DHT22;9206;50.994;4.538;2024-01-30T17:06:37;8.70;99.90
18163;DHT22;9206;50.994;4.538;2024-01-30T17:09:26;8.80;99.90
18163;DHT22;9206;50.994;4.538;2024-01-30T17:12:16;8.70;99.90
18163;DHT22;9206;50.994;4.538;2024-01-30T17:15:05;8.70;99.90
18163;DHT22;9206;50.994;4.538;2024-01-30T17:17:55;8.70;99.90
18163;DHT22;9206;50.994;4.538;2024-01-30T17:20:46;8.60;99.90
18163;DHT22;9206;50.994;4.538;2024-01-30T17:23:34;8.60;99.90
18163;DHT22;9206;50.994;4.538;2024-01-30T17:26:27;8.70;99.90
18163;DHT22;9206;50.994;4.538;2024-01-30T17:29:15;8.60;99.90
18163;DHT22;9206;50.994;4.538;2024-01-30T17:32:03;8.70;99.90
18163;DHT22;9206;50.994;4.538;2024-01-30T17:34:51;8.70;99.90
18163;DHT22;9206;50.994;4.538;2024-01-30T17:37:41;8.80;99.90
18163;DHT22;9206;50.994;4.538;2024-01-30T17:40:31;8.70;99.90
18163;DHT22;9206;50.994;4.538;2024-01-30T17:43:19;8.60;99.90
18163;DHT22;9206;50.994;4.538;2024-01-30T17:46:07;8.70;99.90
18163;DHT22;9206;50.994;4.538;2024-01-30T17:48:58;8.70;99.90
18163;DHT22;9206;50.994;4.538;2024-01-30T17:51:45;8.60;99.90
18163;DHT22;9206;50.994;4.538;2024-01-30T17:54:32;8.70;99.90
18163;DHT22;9206;50.994;4.538;2024-01-30T17:57:23;8.70;99.90
18163;DHT22;9206;50.994;4.538;2024-01-30T18:00:13;8.70;99.90
18163;DHT22;9206;50.994;4.538;2024-01-30T18:03:00;8.80;99.90
18163;DHT22;9206;50.994;4.538;2024-01-30T18:05:53;8.70;99.90
18163;DHT22;9206;50.994;4.538;2024-01-30T18:08:41;8.70;99.90
18163;DHT22;9206;50.994;4.538;2024-01-30T18:11:28;8.60;99.90
18163;DHT22;9206;50.994;4.538;2024-01-30T18:14:15;8.60;99.90
18163;DHT22;9206;50.994;4.538;2024-01-30T18:17:04;8.60;99.90
18163;DHT22;9206;50.994;4.538;2024-01-30T18:19:51;8.60;99.90
18163;DHT22;9206;50.994;4.538;2024-01-30T18:22:40;8.60;99.90
18163;DHT22;9206;50.994;4.538;2024-01-30T18:25:33;8.60;99.90